Time;durP1;ratioP1;P1;durP2;ratioP2;P2;SDS_P1;SDS_P2;PMS_P1;PMS_P2;Temp;Humidity;BMP_temperature;BMP_pressure;BME280_temperature;BME280_humidity;BME280_pressure;Samples;Min_cycle;Max_cycle;Signal;HPM_P1;HPM_P2
2022/04/29 00:01:22;;;;;;;17.15;9.75;;;;;;;;;;4913963;29;20368;-79
2022/04/29 00:03:48;;;;;;;15.38;8.75;;;;;;;;;;4913045;29;20096;-79
2022/04/29 00:06:14;;;;;;;19.98;9.68;;;;;;;;;;4946560;29;20031;-79
2022/04/29 00:08:41;;;;;;;14.10;9.38;;;;;;;;;;4915925;29;20052;-79
2022/04/29 00:11:09;;;;;;;13.73;8.57;;;;;;;;;;4928658;29;20020;-79
2022/04/29 00:13:34;;;;;;;19.45;8.60;;;;;;;;;;4927335;29;20012;-78
2022/04/29 00:16:00;;;;;;;15.40;8.32;;;;;;;;;;4927519;29;20072;-79
2022/04/29 00:18:28;;;;;;;19.17;9.70;;;;;;;;;;4926014;29;20024;-79
2022/04/29 00:20:54;;;;;;;;;;;;;;;;;;4929133;29;20024;-80
2022/04/29 00:23:19;;;;;;;20.13;8.43;;;;;;;;;;4926585;29;19907;-79
2022/04/29 00:25:45;;;;;;;15.73;9.27;;;;;;;;;;4927567;29;20527;-79
2022/04/29 00:28:10;;;;;;;13.40;9.07;;;;;;;;;;4928784;29;20084;-78
2022/04/29 00:30:38;;;;;;;16.15;8.77;;;;;;;;;;4932023;29;20530;-81
2022/04/29 00:33:04;;;;;;;14.05;8.68;;;;;;;;;;4921093;29;20035;-80
2022/04/29 00:35:29;;;;;;;17.00;9.27;;;;;;;;;;4926799;29;20021;-80
2022/04/29 00:37:56;;;;;;;17.40;8.77;;;;;;;;;;4926327;29;20025;-80
2022/04/29 00:40:25;;;;;;;18.10;9.32;;;;;;;;;;4889290;29;20025;-80
2022/04/29 00:43:00;;;;;;;15.63;8.98;;;;;;;;;;4905871;29;20017;-80
2022/04/29 00:45:25;;;;;;;13.82;9.13;;;;;;;;;;4905636;29;20403;-80
2022/04/29 00:47:53;;;;;;;16.67;10.38;;;;;;;;;;4922728;29;20025;-80
2022/04/29 00:50:20;;;;;;;18.80;8.95;;;;;;;;;;4904845;29;20395;-80
2022/04/29 00:52:47;;;;;;;16.65;9.55;;;;;;;;;;4904381;29;20044;-81
2022/04/29 00:55:13;;;;;;;18.48;10.07;;;;;;;;;;4905538;29;20031;-80
2022/04/29 00:57:57;;;;;;;16.73;9.45;;;;;;;;;;4907696;29;20029;-81
2022/04/29 01:00:23;;;;;;;16.70;10.13;;;;;;;;;;4911004;29;20115;-80
2022/04/29 01:02:50;;;;;;;15.90;9.07;;;;;;;;;;4909268;29;20059;-81
2022/04/29 01:05:17;;;;;;;15.38;8.88;;;;;;;;;;4909042;29;20028;-80
2022/04/29 01:07:43;;;;;;;18.38;9.70;;;;;;;;;;4907203;29;20031;-80
2022/04/29 01:10:10;;;;;;;17.33;9.52;;;;;;;;;;4909658;29;20020;-80
2022/04/29 01:12:36;;;;;;;16.15;9.63;;;;;;;;;;4913610;29;20051;-80
2022/04/29 01:15:04;;;;;;;17.38;9.55;;;;;;;;;;4931599;29;20023;-80
2022/04/29 01:17:30;;;;;;;15.20;9.20;;;;;;;;;;4930225;29;20021;-80
2022/04/29 01:19:57;;;;;;;17.88;8.88;;;;;;;;;;4915164;29;20056;-79
2022/04/29 01:22:23;;;;;;;16.83;8.57;;;;;;;;;;4916992;29;20076;-80
2022/04/29 01:24:48;;;;;;;16.35;9.40;;;;;;;;;;4915077;29;20095;-80
2022/04/29 01:27:14;;;;;;;15.02;9.30;;;;;;;;;;4926560;29;20060;-79
2022/04/29 01:29:40;;;;;;;17.20;8.90;;;;;;;;;;4933212;29;20020;-79
2022/04/29 01:32:07;;;;;;;14.25;7.57;;;;;;;;;;4932485;29;20027;-80
2022/04/29 01:34:33;;;;;;;13.98;8.10;;;;;;;;;;4932369;29;20091;-80
2022/04/29 01:36:59;;;;;;;14.25;8.45;;;;;;;;;;4915824;29;20016;-80
2022/04/29 01:39:24;;;;;;;14.25;8.60;;;;;;;;;;4915757;29;20020;-80
2022/04/29 01:41:51;;;;;;;13.25;8.27;;;;;;;;;;4936869;29;20020;-81
2022/04/29 01:44:16;;;;;;;16.67;8.70;;;;;;;;;;4914218;29;20034;-80
2022/04/29 01:46:43;;;;;;;14.43;8.05;;;;;;;;;;4924678;29;20084;-80
2022/04/29 01:49:08;;;;;;;14.98;8.25;;;;;;;;;;4918131;29;20028;-80
2022/04/29 01:51:33;;;;;;;18.40;9.15;;;;;;;;;;4918200;29;20016;-81
2022/04/29 01:53:59;;;;;;;15.60;9.32;;;;;;;;;;4915827;29;20087;-80
2022/04/29 01:56:32;;;;;;;18.48;9.02;;;;;;;;;;4917192;29;20464;-80
2022/04/29 01:58:58;;;;;;;15.43;9.68;;;;;;;;;;4933886;29;20109;-81
2022/04/29 02:01:23;;;;;;;16.63;9.13;;;;;;;;;;4934853;29;20024;-81
2022/04/29 02:03:49;;;;;;;14.00;9.15;;;;;;;;;;4916629;29;20032;-82
2022/04/29 02:06:14;;;;;;;18.35;9.63;;;;;;;;;;4933842;29;20050;-80
2022/04/29 02:08:39;;;;;;;18.95;10.27;;;;;;;;;;4918650;29;20028;-80
2022/04/29 02:11:05;;;;;;;16.08;9.80;;;;;;;;;;4918653;29;20024;-80
2022/04/29 02:13:38;;;;;;;16.58;9.75;;;;;;;;;;4934295;29;20028;-80
2022/04/29 02:16:04;;;;;;;17.48;10.68;;;;;;;;;;4918212;29;20012;-80
2022/04/29 02:18:29;;;;;;;18.40;10.25;;;;;;;;;;4919044;29;20051;-81
2022/04/29 02:20:57;;;;;;;19.48;10.30;;;;;;;;;;4919084;29;20024;-81
2022/04/29 02:23:23;;;;;;;17.67;9.80;;;;;;;;;;4936064;29;20048;-80
2022/04/29 02:25:48;;;;;;;14.48;9.05;;;;;;;;;;4919540;29;20025;-81
2022/04/29 02:28:14;;;;;;;17.65;9.60;;;;;;;;;;4915963;29;20025;-81
2022/04/29 02:30:43;;;;;;;15.13;9.43;;;;;;;;;;4916301;29;20028;-80
2022/04/29 02:33:08;;;;;;;15.45;9.10;;;;;;;;;;4922560;29;20052;-81
2022/04/29 02:35:35;;;;;;;18.42;9.77;;;;;;;;;;4932443;29;20115;-81
2022/04/29 02:38:00;;;;;;;17.85;9.40;;;;;;;;;;4932732;29;20040;-81
2022/04/29 02:40:26;;;;;;;18.83;9.88;;;;;;;;;;4933957;29;20047;-81
2022/04/29 02:42:51;;;;;;;15.98;9.90;;;;;;;;;;4915688;29;20020;-81
2022/04/29 02:45:16;;;;;;;17.40;10.27;;;;;;;;;;4932355;29;20399;-81
2022/04/29 02:47:42;;;;;;;19.50;10.30;;;;;;;;;;4931151;29;20076;-81
2022/04/29 02:50:07;;;;;;;18.35;10.50;;;;;;;;;;4933461;29;20080;-79
2022/04/29 02:52:33;;;;;;;16.83;9.20;;;;;;;;;;4916598;29;20016;-80
2022/04/29 02:54:58;;;;;;;14.48;8.90;;;;;;;;;;4930759;29;20028;-81
2022/04/29 02:57:23;;;;;;;12.63;8.23;;;;;;;;;;4912370;29;20040;-80
2022/04/29 02:59:49;;;;;;;16.08;9.18;;;;;;;;;;4910317;29;20032;-80
2022/04/29 03:02:14;;;;;;;20.88;11.07;;;;;;;;;;4910231;29;20028;-80
2022/04/29 03:04:40;;;;;;;18.70;9.65;;;;;;;;;;4908315;29;20032;-80
2022/04/29 03:07:05;;;;;;;21.40;9.90;;;;;;;;;;4924025;29;20031;-81
2022/04/29 03:09:31;;;;;;;17.80;10.10;;;;;;;;;;4923157;29;20020;-81
2022/04/29 03:11:57;;;;;;;16.02;9.80;;;;;;;;;;4922439;29;20035;-81
2022/04/29 03:14:22;;;;;;;21.35;12.00;;;;;;;;;;4922881;29;20099;-80
2022/04/29 03:16:47;;;;;;;22.15;11.02;;;;;;;;;;4905218;29;20088;-79
2022/04/29 03:19:13;;;;;;;16.02;9.65;;;;;;;;;;4908923;29;20028;-81
2022/04/29 03:21:38;;;;;;;12.82;9.05;;;;;;;;;;4923867;23;20051;-81
2022/04/29 03:24:04;;;;;;;18.20;11.05;;;;;;;;;;4934178;29;20028;-81
2022/04/29 03:26:30;;;;;;;17.55;9.35;;;;;;;;;;4928270;29;20016;-82
2022/04/29 03:28:55;;;;;;;15.80;9.20;;;;;;;;;;4915231;29;20029;-80
2022/04/29 03:31:20;;;;;;;19.33;10.65;;;;;;;;;;4926096;29;20079;-80
2022/04/29 03:33:45;;;;;;;13.85;9.35;;;;;;;;;;4918864;29;20056;-81
2022/04/29 03:36:11;;;;;;;18.33;9.82;;;;;;;;;;4918050;29;20020;-81
2022/04/29 03:38:36;;;;;;;17.48;9.13;;;;;;;;;;4919130;29;20518;-79
2022/04/29 03:41:02;;;;;;;17.20;9.55;;;;;;;;;;4919509;29;20032;-81
2022/04/29 03:43:28;;;;;;;17.75;9.18;;;;;;;;;;4918616;29;20440;-82
2022/04/29 03:45:53;;;;;;;20.55;10.60;;;;;;;;;;4919043;29;20020;-79
2022/04/29 03:48:18;;;;;;;17.65;9.93;;;;;;;;;;4917829;29;20464;-81
2022/04/29 03:50:43;;;;;;;16.02;9.77;;;;;;;;;;4919283;29;20024;-81
2022/04/29 03:53:09;;;;;;;16.80;9.10;;;;;;;;;;4918802;29;20016;-81
2022/04/29 03:55:35;;;;;;;16.92;9.02;;;;;;;;;;4927381;29;20032;-79
2022/04/29 03:58:02;;;;;;;21.02;9.57;;;;;;;;;;4918578;29;20016;-80
2022/04/29 04:00:31;;;;;;;20.90;10.95;;;;;;;;;;4916758;29;20012;-81
2022/04/29 04:02:56;;;;;;;17.95;9.57;;;;;;;;;;4918535;29;20099;-80
2022/04/29 04:05:23;;;;;;;17.13;9.27;;;;;;;;;;4920568;29;20048;-80
2022/04/29 04:07:48;;;;;;;18.40;9.60;;;;;;;;;;4932602;29;20024;-80
2022/04/29 04:10:13;;;;;;;16.67;9.13;;;;;;;;;;4932987;29;20028;-80
2022/04/29 04:12:39;;;;;;;15.32;9.50;;;;;;;;;;4933386;29;20028;-80
2022/04/29 04:15:05;;;;;;;18.55;9.65;;;;;;;;;;4919452;29;20111;-80
2022/04/29 04:17:31;;;;;;;19.08;9.68;;;;;;;;;;4919023;29;20051;-80
2022/04/29 04:19:56;;;;;;;22.75;11.38;;;;;;;;;;4930055;29;20031;-79
2022/04/29 04:22:22;;;;;;;18.95;10.10;;;;;;;;;;4918048;29;20024;-79
2022/04/29 04:24:47;;;;;;;21.75;10.80;;;;;;;;;;4918052;29;20024;-79
2022/04/29 04:27:12;;;;;;;22.77;10.20;;;;;;;;;;4918707;29;20027;-78
2022/04/29 04:29:37;;;;;;;17.45;9.45;;;;;;;;;;4919057;29;20408;-81
2022/04/29 04:32:03;;;;;;;19.50;10.07;;;;;;;;;;4916513;29;20077;-78
2022/04/29 04:37:12;;;;;;;17.55;9.65;;;;;;;;;;4919174;29;20083;-79
2022/04/29 04:39:37;;;;;;;19.92;10.15;;;;;;;;;;4918311;29;20028;-79
2022/04/29 04:42:02;;;;;;;20.93;10.70;;;;;;;;;;4919553;29;20063;-80
2022/04/29 04:44:30;;;;;;;16.90;11.02;;;;;;;;;;4921072;29;20258;-79
2022/04/29 04:46:58;;;;;;;19.05;11.02;;;;;;;;;;4919837;29;20512;-80
2022/04/29 04:49:23;;;;;;;19.40;10.52;;;;;;;;;;4921011;29;20080;-79
2022/04/29 04:51:49;;;;;;;19.48;10.25;;;;;;;;;;4920680;29;20024;-79
2022/04/29 04:54:14;;;;;;;23.60;10.57;;;;;;;;;;4921787;29;20499;-82
2022/04/29 04:56:40;;;;;;;17.92;10.57;;;;;;;;;;4922212;29;20015;-79
2022/04/29 04:59:05;;;;;;;23.67;11.50;;;;;;;;;;4918244;29;20491;-81
2022/04/29 05:01:30;;;;;;;25.40;11.13;;;;;;;;;;4919643;29;20104;-79
2022/04/29 05:03:56;;;;;;;25.50;11.13;;;;;;;;;;4918810;29;20467;-79
2022/04/29 05:06:21;;;;;;;22.85;10.02;;;;;;;;;;4917730;29;20457;-79
2022/04/29 05:08:46;;;;;;;18.63;10.35;;;;;;;;;;4918014;29;20104;-79
2022/04/29 05:11:11;;;;;;;20.52;10.68;;;;;;;;;;4918059;29;20444;-78
2022/04/29 05:13:36;;;;;;;21.52;11.30;;;;;;;;;;4916960;29;20086;-79
2022/04/29 05:16:02;;;;;;;20.88;10.55;;;;;;;;;;4918131;29;20051;-79
2022/04/29 05:18:27;;;;;;;21.55;10.32;;;;;;;;;;4917694;29;20016;-78
2022/04/29 05:20:52;;;;;;;19.75;9.35;;;;;;;;;;4916219;29;20030;-79
2022/04/29 05:23:17;;;;;;;21.67;11.98;;;;;;;;;;4917026;29;20028;-80
2022/04/29 05:25:42;;;;;;;21.60;10.68;;;;;;;;;;4916738;29;20080;-79
2022/04/29 05:28:08;;;;;;;22.58;9.02;;;;;;;;;;4915650;29;20496;-79
2022/04/29 05:30:34;;;;;;;17.77;9.23;;;;;;;;;;4916904;29;20020;-79
2022/04/29 05:32:59;;;;;;;18.20;10.15;;;;;;;;;;4917039;29;20072;-79
2022/04/29 05:35:24;;;;;;;18.92;10.80;;;;;;;;;;4916327;29;20028;-79
2022/04/29 05:37:50;;;;;;;18.95;9.90;;;;;;;;;;4916218;29;20666;-79
2022/04/29 05:43:00;;;;;;;22.13;10.00;;;;;;;;;;4916160;29;20035;-79
2022/04/29 05:45:25;;;;;;;25.83;11.93;;;;;;;;;;4914954;29;20020;-79
2022/04/29 05:47:50;;;;;;;20.45;10.13;;;;;;;;;;4917338;29;20214;-78
2022/04/29 05:50:16;;;;;;;22.52;10.13;;;;;;;;;;4920684;29;20071;-79
2022/04/29 05:52:41;;;;;;;21.35;10.13;;;;;;;;;;4918552;29;20473;-79
2022/04/29 05:55:06;;;;;;;25.08;10.20;;;;;;;;;;4917787;29;20024;-79
2022/04/29 05:57:31;;;;;;;26.77;10.48;;;;;;;;;;4916867;29;20051;-78
2022/04/29 05:59:58;;;;;;;17.13;10.20;;;;;;;;;;4916930;29;20431;-78
2022/04/29 06:02:24;;;;;;;18.95;9.35;;;;;;;;;;4916831;29;20020;-79
2022/04/29 06:04:49;;;;;;;21.95;10.35;;;;;;;;;;4914038;29;20020;-79
2022/04/29 06:07:14;;;;;;;18.45;9.55;;;;;;;;;;4916310;29;20027;-78
2022/04/29 06:09:40;;;;;;;19.92;8.13;;;;;;;;;;4916217;29;20020;-79
2022/04/29 06:12:05;;;;;;;14.20;8.48;;;;;;;;;;4915529;29;20024;-79
2022/04/29 06:14:31;;;;;;;18.85;9.23;;;;;;;;;;4915499;29;20013;-78
2022/04/29 06:16:56;;;;;;;22.42;9.75;;;;;;;;;;4915501;29;20016;-80
2022/04/29 06:19:22;;;;;;;20.95;9.90;;;;;;;;;;4915792;29;20527;-79
2022/04/29 06:21:47;;;;;;;16.20;7.93;;;;;;;;;;4914465;29;20042;-79
2022/04/29 06:24:12;;;;;;;22.80;8.50;;;;;;;;;;4914965;29;20028;-79
2022/04/29 06:26:38;;;;;;;13.75;7.50;;;;;;;;;;4916243;29;20059;-78
2022/04/29 06:29:04;;;;;;;19.60;7.85;;;;;;;;;;4915344;29;20028;-80
2022/04/29 06:31:29;;;;;;;15.95;7.88;;;;;;;;;;4914166;29;20016;-78
2022/04/29 06:33:54;;;;;;;17.13;8.50;;;;;;;;;;4915373;29;20052;-79
2022/04/29 06:36:19;;;;;;;16.58;7.80;;;;;;;;;;4915403;29;20421;-80
2022/04/29 06:38:45;;;;;;;15.60;8.38;;;;;;;;;;4915435;29;20388;-79
2022/04/29 06:41:10;;;;;;;14.15;7.95;;;;;;;;;;4915658;29;20472;-78
2022/04/29 06:43:35;;;;;;;14.63;7.70;;;;;;;;;;4914353;29;20028;-79
2022/04/29 06:46:01;;;;;;;14.95;7.60;;;;;;;;;;4914155;29;20503;-78
2022/04/29 06:48:27;;;;;;;16.13;7.53;;;;;;;;;;4924932;29;20031;-80
2022/04/29 06:50:52;;;;;;;18.27;7.65;;;;;;;;;;4925909;29;20008;-78
2022/04/29 06:53:17;;;;;;;15.25;6.97;;;;;;;;;;4927711;29;20045;-80
2022/04/29 06:55:42;;;;;;;13.05;6.43;;;;;;;;;;4915287;29;20031;-78
2022/04/29 06:58:07;;;;;;;15.23;7.13;;;;;;;;;;4916218;29;20130;-78
2022/04/29 07:00:33;;;;;;;14.65;7.72;;;;;;;;;;4915685;29;20012;-79
2022/04/29 07:03:02;;;;;;;19.25;7.25;;;;;;;;;;4914883;29;20020;-79
2022/04/29 07:05:30;;;;;;;15.65;6.85;;;;;;;;;;4914719;29;20103;-79
2022/04/29 07:07:55;;;;;;;24.55;7.68;;;;;;;;;;4915344;29;20133;-79
2022/04/29 07:10:20;;;;;;;18.25;7.10;;;;;;;;;;4914828;29;20488;-76
2022/04/29 07:12:49;;;;;;;18.58;6.95;;;;;;;;;;4913386;29;20029;-77
2022/04/29 07:15:14;;;;;;;13.00;5.90;;;;;;;;;;4915011;29;20016;-76
2022/04/29 07:17:40;;;;;;;14.50;5.90;;;;;;;;;;4915316;29;20531;-77
2022/04/29 07:20:06;;;;;;;20.15;6.57;;;;;;;;;;4915071;29;20036;-76
2022/04/29 07:22:32;;;;;;;15.32;7.07;;;;;;;;;;4915006;29;20032;-76
2022/04/29 07:24:57;;;;;;;15.43;6.45;;;;;;;;;;4913740;29;20020;-80
2022/04/29 07:27:23;;;;;;;11.60;5.43;;;;;;;;;;4913472;29;20036;-75
2022/04/29 07:29:48;;;;;;;15.68;6.30;;;;;;;;;;4914894;29;20024;-76
2022/04/29 07:32:13;;;;;;;15.30;5.43;;;;;;;;;;4914474;29;20119;-75
2022/04/29 07:43:10;;;;;;;10.52;6.35;;;;;;;;;;4877612;29;20021;-76
2022/04/29 07:45:37;;;;;;;12.80;6.03;;;;;;;;;;4878400;29;20145;-76
2022/04/29 07:48:05;;;;;;;18.90;6.30;;;;;;;;;;4896449;29;20043;-76
2022/04/29 07:50:31;;;;;;;11.23;5.35;;;;;;;;;;4932430;29;20056;-76
2022/04/29 07:52:57;;;;;;;15.25;5.35;;;;;;;;;;4915917;29;20494;-74
2022/04/29 07:55:22;;;;;;;10.45;4.88;;;;;;;;;;4916505;29;20115;-76
2022/04/29 07:57:48;;;;;;;8.60;4.32;;;;;;;;;;4917635;29;20396;-76
2022/04/29 08:00:13;;;;;;;9.67;4.17;;;;;;;;;;4917787;29;20059;-76
2022/04/29 08:02:38;;;;;;;10.60;4.75;;;;;;;;;;4912664;29;20670;-77
2022/04/29 08:05:15;;;;;;;8.75;4.78;;;;;;;;;;4917965;29;20041;-77
2022/04/29 08:07:41;;;;;;;11.50;4.60;;;;;;;;;;4922113;29;20020;-75
2022/04/29 08:10:06;;;;;;;12.13;5.05;;;;;;;;;;4918060;29;20028;-75
2022/04/29 08:12:32;;;;;;;8.45;4.43;;;;;;;;;;4921663;29;20120;-75
2022/04/29 08:14:58;;;;;;;9.10;4.70;;;;;;;;;;4922423;29;20020;-75
2022/04/29 08:17:25;;;;;;;11.90;4.47;;;;;;;;;;4921772;29;20020;-75
2022/04/29 08:19:50;;;;;;;11.32;4.68;;;;;;;;;;4920977;29;20016;-75
2022/04/29 08:22:16;;;;;;;9.13;4.40;;;;;;;;;;4921913;29;20033;-74
2022/04/29 08:24:42;;;;;;;7.93;3.47;;;;;;;;;;4923311;29;20476;-75
2022/04/29 08:27:07;;;;;;;10.70;3.30;;;;;;;;;;4919941;29;20456;-77
2022/04/29 08:29:33;;;;;;;8.73;3.97;;;;;;;;;;4921143;29;20179;-75
2022/04/29 08:31:59;;;;;;;10.32;4.30;;;;;;;;;;4921801;29;20036;-75
2022/04/29 08:34:25;;;;;;;8.27;3.50;;;;;;;;;;4919643;29;20107;-76
2022/04/29 08:36:50;;;;;;;9.40;3.53;;;;;;;;;;4920746;29;20016;-76
2022/04/29 08:39:15;;;;;;;10.90;3.85;;;;;;;;;;4918387;29;20043;-75
2022/04/29 08:41:41;;;;;;;12.25;4.95;;;;;;;;;;4921632;29;20020;-78
2022/04/29 08:44:08;;;;;;;11.27;3.70;;;;;;;;;;4939326;29;20027;-77
2022/04/29 08:46:33;;;;;;;9.52;3.92;;;;;;;;;;4921121;29;20028;-77
2022/04/29 08:48:59;;;;;;;8.35;3.22;;;;;;;;;;4922182;29;20024;-76
2022/04/29 08:51:29;;;;;;;11.05;3.38;;;;;;;;;;4922314;29;20110;-75
2022/04/29 08:53:54;;;;;;;7.15;2.90;;;;;;;;;;4929319;29;20052;-77
2022/04/29 08:59:10;;;;;;;8.77;2.70;;;;;;;;;;4926881;29;20058;-76
2022/04/29 09:01:37;;;;;;;12.93;3.60;;;;;;;;;;4928833;29;20024;-75
2022/04/29 09:04:02;;;;;;;14.02;3.08;;;;;;;;;;4930860;29;20028;-77
2022/04/29 09:06:28;;;;;;;7.43;2.53;;;;;;;;;;4915508;29;20492;-77
2022/04/29 09:09:09;;;;;;;10.40;2.97;;;;;;;;;;4928391;29;20052;-76
2022/04/29 09:11:35;;;;;;;9.43;2.88;;;;;;;;;;4919017;29;20115;-76
2022/04/29 09:14:17;;;;;;;9.13;3.58;;;;;;;;;;4935517;29;20028;-79
2022/04/29 09:16:45;;;;;;;12.82;2.63;;;;;;;;;;4930289;29;20039;-76
2022/04/29 09:19:27;;;;;;;6.95;2.50;;;;;;;;;;4917116;29;20024;-78
2022/04/29 09:22:03;;;;;;;7.47;2.38;;;;;;;;;;4924713;29;20039;-79
2022/04/29 09:24:35;;;;;;;7.43;3.15;;;;;;;;;;4930737;29;20032;-79
2022/04/29 09:27:10;;;;;;;10.38;2.50;;;;;;;;;;4943183;29;20020;-80
2022/04/29 09:29:39;;;;;;;6.95;2.20;;;;;;;;;;4925645;29;20027;-81
2022/04/29 09:32:05;;;;;;;10.95;3.72;;;;;;;;;;4920829;29;20029;-78
2022/04/29 09:34:46;;;;;;;9.20;2.88;;;;;;;;;;4929968;29;20023;-79
2022/04/29 09:37:18;;;;;;;8.32;2.90;;;;;;;;;;4912753;29;20024;-81
2022/04/29 09:40:19;;;;;;;6.60;2.83;;;;;;;;;;4923801;29;20028;-78
2022/04/29 09:42:59;;;;;;;9.35;3.08;;;;;;;;;;4896603;29;20076;-80
2022/04/29 09:45:33;;;;;;;7.65;3.08;;;;;;;;;;4910957;29;20042;-81
2022/04/29 09:47:58;;;;;;;10.82;3.08;;;;;;;;;;4924093;29;20032;-81
2022/04/29 09:50:55;;;;;;;6.47;2.53;;;;;;;;;;4918043;29;20031;-79
2022/04/29 09:53:24;;;;;;;18.65;4.20;;;;;;;;;;4903612;29;20020;-78
2022/04/29 09:56:09;;;;;;;8.70;2.97;;;;;;;;;;4927542;29;20043;-79
2022/04/29 09:58:35;;;;;;;11.70;3.50;;;;;;;;;;4922704;29;20103;-80
2022/04/29 10:01:15;;;;;;;8.98;4.13;;;;;;;;;;4923283;29;20024;-78
2022/04/29 10:03:51;;;;;;;10.40;3.85;;;;;;;;;;4922255;29;20119;-80
2022/04/29 10:06:18;;;;;;;10.80;3.55;;;;;;;;;;4925605;29;20031;-81
2022/04/29 10:08:44;;;;;;;10.00;3.28;;;;;;;;;;4925938;29;20527;-77
2022/04/29 10:11:10;;;;;;;9.30;3.70;;;;;;;;;;4941652;29;20020;-77
2022/04/29 10:13:38;;;;;;;8.25;3.70;;;;;;;;;;4927237;29;20059;-79
2022/04/29 10:16:05;;;;;;;7.40;3.47;;;;;;;;;;4934505;29;20056;-80
2022/04/29 10:21:22;;;;;;;7.35;3.90;;;;;;;;;;4917655;29;20111;-79
2022/04/29 10:23:51;;;;;;;6.78;2.95;;;;;;;;;;4913522;29;20048;-79
2022/04/29 10:26:20;;;;;;;9.82;3.03;;;;;;;;;;4915613;29;20028;-79
2022/04/29 10:28:46;;;;;;;8.27;3.13;;;;;;;;;;4916603;29;20115;-78
2022/04/29 10:31:19;;;;;;;6.97;3.22;;;;;;;;;;4916413;29;20108;-77
2022/04/29 10:33:45;;;;;;;6.65;2.70;;;;;;;;;;4916407;29;20020;-79
2022/04/29 10:36:14;;;;;;;6.32;2.70;;;;;;;;;;4919476;29;20146;-79
2022/04/29 10:38:39;;;;;;;9.45;3.25;;;;;;;;;;4927519;29;20044;-77
2022/04/29 10:41:12;;;;;;;11.52;3.42;;;;;;;;;;4912262;29;20020;-79
2022/04/29 10:43:46;;;;;;;9.95;3.60;;;;;;;;;;4929604;29;20049;-78
2022/04/29 10:46:13;;;;;;;11.25;3.50;;;;;;;;;;4944500;29;20016;-78
2022/04/29 10:48:38;;;;;;;12.18;3.10;;;;;;;;;;4924325;29;20088;-79
2022/04/29 10:51:10;;;;;;;9.85;3.40;;;;;;;;;;4916788;29;20052;-79
2022/04/29 10:53:37;;;;;;;12.88;4.65;;;;;;;;;;4915668;29;20091;-78
2022/04/29 10:56:21;;;;;;;6.80;3.22;;;;;;;;;;4915060;29;20032;-79
2022/04/29 10:58:46;;;;;;;10.55;3.60;;;;;;;;;;4915140;29;20052;-80
2022/04/29 11:01:15;;;;;;;6.47;3.47;;;;;;;;;;4914102;29;20036;-79
2022/04/29 11:03:47;;;;;;;12.90;4.13;;;;;;;;;;4910975;29;20278;-78
2022/04/29 11:06:13;;;;;;;6.35;3.63;;;;;;;;;;4913279;29;20043;-78
2022/04/29 11:08:39;;;;;;;8.65;3.50;;;;;;;;;;4918048;29;20032;-80
2022/04/29 11:11:04;;;;;;;7.18;3.33;;;;;;;;;;4915880;29;20105;-79
2022/04/29 11:13:34;;;;;;;8.70;3.80;;;;;;;;;;4918110;29;20031;-79
2022/04/29 11:16:08;;;;;;;8.18;4.28;;;;;;;;;;4918261;29;20496;-78
2022/04/29 11:18:33;;;;;;;16.08;6.85;;;;;;;;;;4916780;29;20464;-82
2022/04/29 11:24:40;;;;;;;11.82;4.18;;;;;;;;;;4918688;29;20027;-82
2022/04/29 11:26:43;;;;;;;7.35;3.75;;;;;;;;;;4907877;29;20120;-77
2022/04/29 11:29:11;;;;;;;8.00;3.83;;;;;;;;;;4901823;29;20028;-78
2022/04/29 11:31:36;;;;;;;;;;;;;;;;;;4917836;29;20052;-79
2022/04/29 11:34:06;;;;;;;8.27;3.22;;;;;;;;;;4917697;29;20069;-78
2022/04/29 11:36:31;;;;;;;11.85;4.10;;;;;;;;;;4916992;29;20369;-78
2022/04/29 11:38:56;;;;;;;6.80;3.20;;;;;;;;;;4917347;29;20035;-79
2022/04/29 11:41:24;;;;;;;5.82;3.10;;;;;;;;;;4917967;29;20176;-77
2022/04/29 11:43:58;;;;;;;7.03;3.40;;;;;;;;;;4916194;29;20055;-78
2022/04/29 11:46:24;;;;;;;13.05;3.75;;;;;;;;;;4916796;29;20055;-78
2022/04/29 11:48:53;;;;;;;12.32;3.63;;;;;;;;;;4916272;29;20052;-78
2022/04/29 11:51:19;;;;;;;10.55;3.92;;;;;;;;;;4915796;29;20031;-78
2022/04/29 11:53:57;;;;;;;10.98;4.07;;;;;;;;;;4910286;29;20336;-78
2022/04/29 11:56:30;;;;;;;9.65;4.57;;;;;;;;;;4917902;29;20056;-79
2022/04/29 11:58:55;;;;;;;14.55;4.43;;;;;;;;;;4911875;29;20048;-78
2022/04/29 12:01:20;;;;;;;8.10;3.22;;;;;;;;;;4918383;29;20020;-79
2022/04/29 12:03:49;;;;;;;9.50;3.50;;;;;;;;;;4916106;29;20485;-79
2022/04/29 12:06:16;;;;;;;9.55;4.95;;;;;;;;;;4919199;29;20016;-78
2022/04/29 12:08:42;;;;;;;9.90;4.00;;;;;;;;;;4918073;29;20476;-79
2022/04/29 12:11:08;;;;;;;12.80;5.03;;;;;;;;;;4913773;29;20052;-78
2022/04/29 12:13:36;;;;;;;9.88;4.40;;;;;;;;;;4916955;29;20016;-80
2022/04/29 12:16:02;;;;;;;10.40;3.72;;;;;;;;;;4918851;29;20021;-80
2022/04/29 12:18:44;;;;;;;16.90;4.97;;;;;;;;;;4919344;29;20031;-78
2022/04/29 12:21:10;;;;;;;10.02;4.43;;;;;;;;;;4900958;29;20024;-79
2022/04/29 12:23:35;;;;;;;15.73;3.92;;;;;;;;;;4913814;29;20028;-78
2022/04/29 12:26:01;;;;;;;9.67;4.53;;;;;;;;;;4914428;29;20107;-77
2022/04/29 12:28:27;;;;;;;10.38;3.95;;;;;;;;;;4919811;29;20256;-78
2022/04/29 12:36:49;;;;;;;6.05;3.22;;;;;;;;;;4918668;29;20080;-77
2022/04/29 12:39:15;;;;;;;12.38;4.20;;;;;;;;;;4903026;29;20087;-78
2022/04/29 12:41:41;;;;;;;6.82;3.08;;;;;;;;;;4911713;29;20067;-77
2022/04/29 12:44:11;;;;;;;6.72;2.67;;;;;;;;;;4931911;29;20489;-79
2022/04/29 12:46:36;;;;;;;9.82;3.47;;;;;;;;;;4916819;29;20040;-79
2022/04/29 12:49:02;;;;;;;8.93;3.45;;;;;;;;;;4917327;29;20107;-78
2022/04/29 12:51:28;;;;;;;7.05;3.03;;;;;;;;;;4919595;29;20087;-78
2022/04/29 12:53:54;;;;;;;5.72;3.00;;;;;;;;;;4916467;29;20127;-77
2022/04/29 12:56:27;;;;;;;7.78;3.50;;;;;;;;;;4915217;29;20028;-79
2022/04/29 12:58:52;;;;;;;10.80;3.47;;;;;;;;;;4915171;29;20028;-77
2022/04/29 13:01:17;;;;;;;8.18;3.50;;;;;;;;;;4916072;29;20031;-77
2022/04/29 13:04:09;;;;;;;8.32;2.83;;;;;;;;;;4930441;29;20436;-79
2022/04/29 13:06:34;;;;;;;7.18;2.63;;;;;;;;;;4912762;29;20036;-79
2022/04/29 13:09:01;;;;;;;12.07;2.90;;;;;;;;;;4916675;29;20504;-79
2022/04/29 13:11:26;;;;;;;7.53;2.67;;;;;;;;;;4919530;29;20262;-80
2022/04/29 13:13:52;;;;;;;8.57;3.17;;;;;;;;;;4915987;29;20044;-82
2022/04/29 13:16:18;;;;;;;10.50;2.80;;;;;;;;;;4916192;29;20024;-81
2022/04/29 13:18:44;;;;;;;7.70;2.72;;;;;;;;;;4915814;29;20040;-80
2022/04/29 13:21:13;;;;;;;6.20;2.58;;;;;;;;;;4915663;29;20107;-80
2022/04/29 13:23:38;;;;;;;5.65;2.60;;;;;;;;;;4914281;29;20404;-84
2022/04/29 13:26:04;;;;;;;9.55;3.70;;;;;;;;;;4916142;29;20028;-81
2022/04/29 13:28:31;;;;;;;8.13;3.08;;;;;;;;;;4921986;29;20504;-81
2022/04/29 13:30:56;;;;;;;9.32;3.17;;;;;;;;;;4914263;29;20059;-81
2022/04/29 13:33:21;;;;;;;8.98;3.05;;;;;;;;;;4910137;29;20047;-81
2022/04/29 13:35:47;;;;;;;9.98;3.72;;;;;;;;;;4908642;29;20506;-81
2022/04/29 13:38:12;;;;;;;6.53;3.00;;;;;;;;;;4915606;29;20451;-82
2022/04/29 13:40:37;;;;;;;8.63;3.83;;;;;;;;;;4912089;29;20494;-80
2022/04/29 13:43:04;;;;;;;7.45;3.00;;;;;;;;;;4914718;29;20662;-82
2022/04/29 13:45:29;;;;;;;8.15;3.45;;;;;;;;;;4915457;29;20046;-81
2022/04/29 13:47:55;;;;;;;12.60;3.10;;;;;;;;;;4915165;29;20436;-82
2022/04/29 13:50:20;;;;;;;5.77;2.90;;;;;;;;;;4915022;29;20641;-80
2022/04/29 13:55:32;;;;;;;5.93;2.72;;;;;;;;;;4914731;29;20035;-80
2022/04/29 13:57:57;;;;;;;6.18;2.47;;;;;;;;;;4914868;29;20103;-81
2022/04/29 14:00:23;;;;;;;6.88;2.90;;;;;;;;;;4914191;29;20496;-80
2022/04/29 14:02:51;;;;;;;5.40;2.63;;;;;;;;;;4914439;29;20087;-80
2022/04/29 14:05:16;;;;;;;8.57;3.00;;;;;;;;;;4912675;29;20112;-83
2022/04/29 14:07:43;;;;;;;7.72;3.08;;;;;;;;;;4915920;29;20551;-80
2022/04/29 14:10:08;;;;;;;7.05;2.60;;;;;;;;;;4913343;29;20024;-81
2022/04/29 14:12:35;;;;;;;8.93;3.35;;;;;;;;;;4908919;29;20019;-78
2022/04/29 14:15:00;;;;;;;5.88;2.75;;;;;;;;;;4912819;29;20484;-78
2022/04/29 14:17:25;;;;;;;6.55;3.40;;;;;;;;;;4910078;29;20022;-81
2022/04/29 14:19:50;;;;;;;9.23;3.20;;;;;;;;;;4914794;29;20099;-83
2022/04/29 14:22:19;;;;;;;14.43;3.73;;;;;;;;;;4914665;29;20028;-79
2022/04/29 14:24:44;;;;;;;12.95;3.22;;;;;;;;;;4912691;29;20024;-79
2022/04/29 14:27:09;;;;;;;5.60;2.78;;;;;;;;;;4914743;29;20126;-78
2022/04/29 14:29:44;;;;;;;5.60;2.60;;;;;;;;;;4908325;29;20187;-78
2022/04/29 14:32:11;;;;;;;9.52;4.00;;;;;;;;;;4910261;29;20062;-79
2022/04/29 14:34:51;;;;;;;12.98;3.45;;;;;;;;;;4913532;29;20020;-79
2022/04/29 14:37:20;;;;;;;6.60;2.70;;;;;;;;;;4914391;29;20106;-80
2022/04/29 14:39:46;;;;;;;7.13;2.70;;;;;;;;;;4912075;29;20120;-79
2022/04/29 14:42:11;;;;;;;7.07;2.70;;;;;;;;;;4910369;29;20103;-78
2022/04/29 14:44:37;;;;;;;4.80;2.58;;;;;;;;;;4915139;29;20567;-79
2022/04/29 14:47:02;;;;;;;9.80;2.60;;;;;;;;;;4916769;29;20629;-78
2022/04/29 14:49:30;;;;;;;7.40;3.13;;;;;;;;;;4917547;29;20476;-79
2022/04/29 14:52:08;;;;;;;7.53;2.60;;;;;;;;;;4918104;29;20082;-78
2022/04/29 14:54:34;;;;;;;6.72;2.92;;;;;;;;;;4917491;29;20107;-79
2022/04/29 14:57:02;;;;;;;5.80;2.78;;;;;;;;;;4919134;29;20107;-78
2022/04/29 14:59:27;;;;;;;7.18;3.28;;;;;;;;;;4918980;29;20507;-78
2022/04/29 15:01:53;;;;;;;8.77;3.60;;;;;;;;;;4917769;29;20036;-78
2022/04/29 15:04:21;;;;;;;12.98;3.47;;;;;;;;;;4916958;29;20039;-78